Time;durP1;ratioP1;P1;durP2;ratioP2;P2;SDS_P1;SDS_P2;PMS_P1;PMS_P2;Temp;Humidity;BMP_temperature;BMP_pressure;BME280_temperature;BME280_humidity;BME280_pressure;Samples;Min_cycle;Max_cycle;Signal;HPM_P1;HPM_P2
2023/06/09 00:00:37;;;;;;;1.70;1.60;;;25.10;54.00;;;;;;222534;1268;22505;-54
2023/06/09 00:06:01;;;;;;;2.00;1.90;;;25.10;54.00;;;;;;222437;1268;24193;-59
2023/06/09 00:11:05;;;;;;;1.80;1.70;;;25.10;53.90;;;;;;222559;1260;22514;-55
2023/06/09 00:16:10;;;;;;;2.00;1.90;;;25.10;54.40;;;;;;222353;1268;22501;-54
2023/06/09 00:21:15;;;;;;;1.80;1.70;;;25.10;54.10;;;;;;222340;1268;22968;-58
2023/06/09 00:26:19;;;;;;;1.90;1.80;;;25.10;54.20;;;;;;222437;1268;25281;-56
2023/06/09 00:31:24;;;;;;;1.60;1.50;;;25.10;54.10;;;;;;222469;1268;25371;-53
2023/06/09 00:36:28;;;;;;;1.80;1.70;;;25.00;54.20;;;;;;222478;1267;25394;-55
2023/06/09 00:41:37;;;;;;;1.80;1.70;;;25.00;54.20;;;;;;222388;1268;22511;-52
2023/06/09 00:46:41;;;;;;;2.00;1.90;;;25.00;54.40;;;;;;222639;1268;22764;-54
2023/06/09 00:51:45;;;;;;;1.90;1.80;;;25.00;54.10;;;;;;222486;1268;22534;-55
2023/06/09 00:56:50;;;;;;;2.00;1.90;;;25.00;54.50;;;;;;222451;1268;24322;-53
2023/06/09 01:01:54;;;;;;;2.10;2.00;;;25.00;54.20;;;;;;222595;1268;22507;-50
2023/06/09 01:07:30;;;;;;;2.50;2.40;;;25.00;53.80;;;;;;222453;1268;22514;-54
2023/06/09 01:12:50;;;;;;;1.80;1.70;;;25.00;54.60;;;;;;222455;1268;22540;-54
2023/06/09 01:18:02;;;;;;;1.90;1.80;;;24.90;54.20;;;;;;222441;1268;22948;-52
2023/06/09 01:23:20;;;;;;;1.70;1.60;;;25.00;54.20;;;;;;222588;1245;25302;-55
2023/06/09 01:28:26;;;;;;;2.70;2.50;;;24.90;54.20;;;;;;222435;1268;22624;-55
2023/06/09 01:33:31;;;;;;;2.20;2.10;;;24.90;54.20;;;;;;222532;1266;24741;-56
2023/06/09 01:38:36;;;;;;;2.10;2.00;;;24.90;54.30;;;;;;222455;1264;22517;-54
2023/06/09 01:43:40;;;;;;;2.00;1.90;;;24.90;54.60;;;;;;222794;1264;25808;-52
2023/06/09 01:49:07;;;;;;;2.30;2.10;;;24.90;54.40;;;;;;222483;1268;24229;-53
2023/06/09 01:54:20;;;;;;;2.20;2.10;;;24.90;54.30;;;;;;222772;1264;23924;-54
2023/06/09 01:59:30;;;;;;;1.70;1.60;;;24.90;54.20;;;;;;222421;1268;22971;-56
2023/06/09 02:04:38;;;;;;;2.30;2.20;;;25.00;54.20;;;;;;222427;1268;26606;-53
2023/06/09 02:09:44;;;;;;;2.20;2.00;;;24.90;54.10;;;;;;222373;1268;24190;-57
2023/06/09 02:14:48;;;;;;;2.00;1.90;;;24.90;53.90;;;;;;222639;1260;189361;-53
2023/06/09 02:19:53;;;;;;;2.00;1.90;;;24.90;54.00;;;;;;222482;1268;22874;-53
2023/06/09 02:24:58;;;;;;;2.10;2.00;;;24.90;53.80;;;;;;222479;1268;22518;-53
2023/06/09 02:30:02;;;;;;;2.80;2.20;;;25.00;53.80;;;;;;222461;1263;22511;-54
2023/06/09 02:35:07;;;;;;;1.90;1.80;;;24.90;53.80;;;;;;222101;1269;22619;-55
2023/06/09 02:40:13;;;;;;;2.30;2.20;;;24.90;53.90;;;;;;222235;1264;25278;-53
2023/06/09 02:45:18;;;;;;;2.50;2.30;;;24.90;53.90;;;;;;222225;1269;22808;-54
2023/06/09 02:50:23;;;;;;;2.40;2.20;;;24.90;53.90;;;;;;222328;1269;22602;-53
2023/06/09 02:55:32;;;;;;;2.30;2.20;;;24.90;53.90;;;;;;222365;1269;22540;-55
2023/06/09 03:00:36;;;;;;;2.20;2.00;;;24.90;54.20;;;;;;222305;1269;22515;-53
2023/06/09 03:05:43;;;;;;;1.90;1.80;;;24.90;53.90;;;;;;222501;1269;22540;-58
2023/06/09 03:10:49;;;;;;;2.10;2.00;;;24.90;53.70;;;;;;222115;1269;22644;-51
2023/06/09 03:15:55;;;;;;;2.30;2.20;;;24.90;54.00;;;;;;222292;1269;24446;-51
2023/06/09 03:21:04;;;;;;;2.10;2.00;;;24.90;53.60;;;;;;222208;1264;22521;-54
2023/06/09 03:26:11;;;;;;;2.10;2.00;;;24.90;53.60;;;;;;222456;1269;24382;-56
2023/06/09 03:31:17;;;;;;;2.50;2.30;;;25.00;53.50;;;;;;222463;1268;25230;-54
2023/06/09 03:36:23;;;;;;;2.90;2.70;;;24.90;53.50;;;;;;222742;1268;22523;-55
2023/06/09 03:41:28;;;;;;;1.80;1.70;;;25.00;53.50;;;;;;222371;1258;23699;-53
2023/06/09 03:46:33;;;;;;;2.20;2.10;;;24.90;53.50;;;;;;222373;1264;22783;-53
2023/06/09 03:51:38;;;;;;;1.80;1.70;;;24.90;53.50;;;;;;222402;1268;24257;-55
2023/06/09 03:56:43;;;;;;;2.20;2.10;;;25.00;53.30;;;;;;222530;1263;22644;-52
2023/06/09 04:01:48;;;;;;;2.20;2.10;;;25.00;53.30;;;;;;222543;1268;22497;-56
2023/06/09 04:06:56;;;;;;;2.20;2.10;;;24.90;53.30;;;;;;222521;1265;22521;-56
2023/06/09 04:12:02;;;;;;;2.40;2.20;;;25.00;53.70;;;;;;222477;1267;25331;-52
2023/06/09 04:17:06;;;;;;;2.40;2.20;;;25.00;53.30;;;;;;222475;1268;25238;-51
2023/06/09 04:22:12;;;;;;;2.30;2.20;;;24.90;53.20;;;;;;222844;1268;25685;-52
2023/06/09 04:27:19;;;;;;;2.20;2.10;;;25.00;53.30;;;;;;222385;1268;24082;-53
2023/06/09 04:32:24;;;;;;;2.10;2.00;;;24.90;53.20;;;;;;222526;1268;22731;-57
2023/06/09 04:37:29;;;;;;;2.00;1.90;;;25.00;53.70;;;;;;222877;1268;22619;-53
2023/06/09 04:42:34;;;;;;;2.30;2.20;;;24.90;53.40;;;;;;222443;1268;23879;-55
2023/06/09 04:47:39;;;;;;;2.00;1.90;;;25.00;53.20;;;;;;222483;1268;22508;-50
2023/06/09 04:52:45;;;;;;;2.40;2.30;;;24.90;53.30;;;;;;222482;1268;22597;-53
2023/06/09 04:57:49;;;;;;;2.10;2.00;;;24.90;53.30;;;;;;222438;1268;25340;-54
2023/06/09 05:02:57;;;;;;;2.10;2.00;;;24.90;53.30;;;;;;222476;1266;22633;-55
2023/06/09 05:08:04;;;;;;;2.40;2.30;;;24.90;53.70;;;;;;222737;1268;24240;-54
2023/06/09 05:13:08;;;;;;;2.40;2.20;;;24.90;53.40;;;;;;222676;1268;25208;-51
2023/06/09 05:18:17;;;;;;;2.30;2.20;;;24.90;53.40;;;;;;222450;1268;22611;-57
2023/06/09 05:23:22;;;;;;;2.50;2.40;;;24.80;53.20;;;;;;222931;1262;25377;-56
2023/06/09 05:28:26;;;;;;;2.10;1.90;;;24.90;53.50;;;;;;222522;1268;22524;-51
2023/06/09 05:33:30;;;;;;;2.40;2.20;;;24.90;53.40;;;;;;222521;1268;22534;-51
2023/06/09 05:38:34;;;;;;;2.10;2.00;;;24.90;53.40;;;;;;222660;1268;22923;-56
2023/06/09 05:43:38;;;;;;;2.40;2.30;;;24.90;53.70;;;;;;222564;1268;22517;-55
2023/06/09 05:48:43;;;;;;;2.30;2.20;;;24.90;53.50;;;;;;222473;1268;22533;-54
2023/06/09 05:53:47;;;;;;;2.30;2.20;;;24.90;53.30;;;;;;222383;1268;24184;-54
2023/06/09 05:58:52;;;;;;;2.40;2.30;;;24.90;53.30;;;;;;222351;1268;22519;-54
2023/06/09 06:03:56;;;;;;;2.60;2.40;;;24.90;53.30;;;;;;222578;1268;25313;-54
2023/06/09 06:09:00;;;;;;;2.30;2.20;;;24.90;53.50;;;;;;222492;1268;22511;-56
2023/06/09 06:14:05;;;;;;;2.00;1.90;;;24.90;53.40;;;;;;222517;1268;24333;-54
2023/06/09 06:19:11;;;;;;;2.20;2.10;;;24.90;53.50;;;;;;222372;1268;25569;-54
2023/06/09 06:24:17;;;;;;;2.30;2.20;;;24.90;53.50;;;;;;222580;1268;22503;-53
2023/06/09 06:29:22;;;;;;;2.40;2.20;;;24.90;53.50;;;;;;222440;1268;24365;-55
2023/06/09 06:34:26;;;;;;;2.30;2.20;;;25.00;53.50;;;;;;222320;1268;22699;-53
2023/06/09 06:39:31;;;;;;;2.20;2.10;;;24.90;53.40;;;;;;222550;1264;23020;-54
2023/06/09 06:44:35;;;;;;;2.30;2.20;;;24.90;53.40;;;;;;222586;1268;24264;-53
2023/06/09 06:49:40;;;;;;;2.10;2.00;;;24.90;53.40;;;;;;222401;1257;24194;-53
2023/06/09 06:54:45;;;;;;;2.30;2.20;;;24.90;53.40;;;;;;222630;1268;25610;-56
2023/06/09 06:59:49;;;;;;;2.10;2.00;;;25.00;53.30;;;;;;222555;1268;22526;-51
2023/06/09 07:04:53;;;;;;;2.30;2.20;;;25.00;53.70;;;;;;222505;1268;24237;-54
2023/06/09 07:09:57;;;;;;;2.50;2.40;;;25.00;53.30;;;;;;222569;1265;22587;-57
2023/06/09 07:15:02;;;;;;;2.50;2.40;;;25.00;53.30;;;;;;222587;1267;22624;-52
2023/06/09 07:20:07;;;;;;;2.40;2.30;;;25.00;53.20;;;;;;222705;1267;22638;-56
2023/06/09 07:25:11;;;;;;;2.20;2.00;;;25.10;52.90;;;;;;222347;1268;24148;-54
2023/06/09 07:30:16;;;;;;;2.30;2.20;;;25.10;52.90;;;;;;222694;1260;22510;-56
2023/06/09 07:35:23;;;;;;;2.50;2.40;;;25.20;52.80;;;;;;222521;1268;25265;-55
2023/06/09 07:40:27;;;;;;;2.70;2.50;;;25.20;52.90;;;;;;222573;1268;22505;-54
2023/06/09 07:45:32;;;;;;;2.30;2.20;;;25.20;53.20;;;;;;222533;1267;22597;-55
2023/06/09 07:50:36;;;;;;;2.00;1.90;;;25.30;52.80;;;;;;222527;1268;22635;-52
2023/06/09 07:56:00;;;;;;;2.00;1.90;;;25.30;53.20;;;;;;222403;1268;23847;-54
2023/06/09 08:01:05;;;;;;;2.20;2.10;;;25.30;52.60;;;;;;222515;1261;24167;-55
2023/06/09 08:06:09;;;;;;;1.90;1.80;;;25.30;52.70;;;;;;222521;1268;22507;-54
2023/06/09 08:11:14;;;;;;;2.10;2.00;;;25.30;52.80;;;;;;222490;1268;23891;-54
2023/06/09 08:16:18;;;;;;;2.20;2.00;;;25.30;52.90;;;;;;222498;1268;22537;-54
2023/06/09 08:21:22;;;;;;;2.10;2.00;;;25.20;52.90;;;;;;222823;1268;25256;-53
2023/06/09 08:26:27;;;;;;;1.90;1.80;;;25.20;53.10;;;;;;222634;1268;23109;-54
2023/06/09 08:31:32;;;;;;;2.00;1.90;;;25.20;53.10;;;;;;222431;1269;22617;-55
2023/06/09 08:36:36;;;;;;;2.60;2.40;;;25.20;53.10;;;;;;222231;1269;25246;-56
2023/06/09 08:41:42;;;;;;;2.30;2.20;;;25.20;53.10;;;;;;222570;1265;22515;-53
2023/06/09 08:46:48;;;;;;;2.00;1.90;;;25.20;53.10;;;;;;222039;1269;24736;-54
2023/06/09 08:51:53;;;;;;;2.50;2.30;;;25.20;53.10;;;;;;222256;1269;25218;-54
2023/06/09 08:56:58;;;;;;;2.50;2.30;;;25.20;53.20;;;;;;222260;1269;22511;-54
2023/06/09 09:02:03;;;;;;;2.00;1.90;;;25.30;53.50;;;;;;222252;1267;25391;-54
2023/06/09 09:07:09;;;;;;;2.20;2.10;;;25.40;52.90;;;;;;222282;1269;22683;-54
2023/06/09 09:12:13;;;;;;;2.40;2.30;;;25.40;53.10;;;;;;222252;1268;22535;-55
2023/06/09 09:17:18;;;;;;;2.20;2.10;;;25.40;52.90;;;;;;222328;1269;24318;-54
2023/06/09 09:22:22;;;;;;;2.20;2.10;;;25.30;52.90;;;;;;222274;1268;22523;-55
2023/06/09 09:27:27;;;;;;;2.40;2.30;;;25.40;53.40;;;;;;222090;1268;24268;-54
2023/06/09 09:32:31;;;;;;;2.70;2.50;;;25.30;53.00;;;;;;222218;1268;22585;-51
2023/06/09 09:37:36;;;;;;;2.20;2.10;;;25.40;53.50;;;;;;222420;1268;22637;-58
2023/06/09 09:42:41;;;;;;;2.40;2.20;;;25.40;53.40;;;;;;222407;1268;22641;-54
2023/06/09 09:47:45;;;;;;;2.40;2.20;;;25.40;53.10;;;;;;222812;1268;24248;-54
2023/06/09 09:52:51;;;;;;;2.20;2.10;;;25.40;53.20;;;;;;222310;1268;24174;-57
2023/06/09 09:57:58;;;;;;;2.40;2.30;;;25.30;53.20;;;;;;222538;1268;22785;-54
2023/06/09 10:03:08;;;;;;;2.20;2.10;;;25.40;53.00;;;;;;222579;1268;23022;-56
2023/06/09 10:08:21;;;;;;;2.30;2.20;;;25.40;52.90;;;;;;222770;1268;22519;-57
2023/06/09 10:13:26;;;;;;;2.20;2.10;;;25.50;53.00;;;;;;222370;1268;22648;-55
2023/06/09 10:18:32;;;;;;;2.60;2.40;;;25.60;53.10;;;;;;222306;1268;24255;-53
2023/06/09 10:23:36;;;;;;;2.20;2.10;;;25.60;52.80;;;;;;222675;1262;22507;-54
2023/06/09 10:28:40;;;;;;;2.60;2.50;;;25.60;53.30;;;;;;222435;1268;24269;-53
2023/06/09 10:33:45;;;;;;;2.30;2.20;;;25.50;52.90;;;;;;222615;1268;22986;-52
2023/06/09 10:38:53;;;;;;;2.40;2.30;;;25.50;53.00;;;;;;222646;1265;22598;-55
2023/06/09 10:44:16;;;;;;;2.40;2.30;;;25.50;53.00;;;;;;222419;1268;22513;-55
2023/06/09 10:49:36;;;;;;;2.30;2.20;;;25.50;53.40;;;;;;222587;1268;22582;-54
2023/06/09 10:54:40;;;;;;;2.00;1.90;;;25.50;53.50;;;;;;222856;1257;25518;-56
2023/06/09 10:59:47;;;;;;;2.50;2.40;;;25.50;53.10;;;;;;222578;1265;22713;-56
2023/06/09 11:04:53;;;;;;;2.30;2.20;;;25.50;53.10;;;;;;222766;1266;22560;-52
2023/06/09 11:09:56;;;;;;;2.30;2.20;;;25.50;53.10;;;;;;222395;1268;24392;-54
2023/06/09 11:15:02;;;;;;;2.30;2.20;;;25.40;53.20;;;;;;222604;1268;23967;-53
2023/06/09 11:20:06;;;;;;;2.40;2.20;;;25.40;53.20;;;;;;222764;1268;25314;-57
2023/06/09 11:25:17;;;;;;;2.70;2.50;;;25.40;53.30;;;;;;222682;1268;24306;-53
2023/06/09 11:30:24;;;;;;;2.50;2.30;;;25.40;53.30;;;;;;222617;1268;25629;-53
2023/06/09 11:35:30;;;;;;;2.40;2.30;;;25.30;53.40;;;;;;222570;1268;25397;-53
2023/06/09 11:40:37;;;;;;;2.10;2.00;;;25.40;53.50;;;;;;222696;1267;22514;-55
2023/06/09 11:45:42;;;;;;;2.10;2.00;;;25.30;53.60;;;;;;222496;1268;25352;-54
2023/06/09 11:50:47;;;;;;;2.30;2.20;;;25.30;53.70;;;;;;222582;1268;24184;-56
2023/06/09 11:56:09;;;;;;;2.10;2.00;;;25.30;53.70;;;;;;222568;1268;22515;-53
2023/06/09 12:01:13;;;;;;;2.10;2.00;;;25.20;53.70;;;;;;222535;1268;26651;-52
2023/06/09 12:06:18;;;;;;;2.50;2.20;;;25.20;53.70;;;;;;222407;1268;22555;-54
2023/06/09 12:11:22;;;;;;;2.50;2.40;;;25.20;53.70;;;;;;222726;1266;22609;-54
2023/06/09 12:16:26;;;;;;;2.40;2.30;;;25.20;53.80;;;;;;222501;1268;22520;-54
2023/06/09 12:21:34;;;;;;;2.70;2.60;;;25.20;54.20;;;;;;222609;1268;24260;-54
2023/06/09 12:26:47;;;;;;;2.20;2.10;;;25.20;53.90;;;;;;221039;1268;25499;-54
2023/06/09 12:31:52;;;;;;;2.80;2.30;;;25.20;53.90;;;;;;220966;1276;22577;-54
2023/06/09 12:36:59;;;;;;;2.20;2.10;;;25.20;54.30;;;;;;220903;1275;24310;-54
2023/06/09 12:42:10;;;;;;;2.90;2.70;;;25.20;54.00;;;;;;221371;1268;22668;-54
2023/06/09 12:47:15;;;;;;;2.90;2.30;;;25.20;54.00;;;;;;222486;1268;22511;-59
2023/06/09 12:52:21;;;;;;;2.10;2.00;;;25.20;54.00;;;;;;222696;1268;22958;-54
2023/06/09 12:57:25;;;;;;;2.80;2.60;;;25.20;54.00;;;;;;222648;1268;24484;-53
2023/06/09 13:02:29;;;;;;;2.40;2.30;;;25.20;54.00;;;;;;222447;1268;22629;-53
2023/06/09 13:07:36;;;;;;;2.60;2.50;;;25.20;53.90;;;;;;222369;1268;24519;-52
2023/06/09 13:12:40;;;;;;;2.10;2.00;;;25.30;53.90;;;;;;222659;1268;22524;-56
2023/06/09 13:17:45;;;;;;;2.50;2.40;;;25.30;54.30;;;;;;222440;1268;23932;-50
2023/06/09 13:22:50;;;;;;;2.40;2.30;;;25.30;53.90;;;;;;222420;1268;24184;-56
2023/06/09 13:27:55;;;;;;;2.20;2.10;;;25.30;53.80;;;;;;222394;1268;24189;-54
2023/06/09 13:33:00;;;;;;;2.00;1.90;;;25.40;53.80;;;;;;222931;1268;25360;-53
2023/06/09 13:38:04;;;;;;;2.40;2.30;;;25.40;53.80;;;;;;222622;1268;25656;-53
2023/06/09 13:43:12;;;;;;;2.40;2.30;;;25.40;53.70;;;;;;222571;1268;24189;-57
2023/06/09 13:48:18;;;;;;;2.30;2.20;;;25.40;53.50;;;;;;222688;1268;25443;-55
2023/06/09 13:53:23;;;;;;;2.30;2.20;;;25.40;53.60;;;;;;222418;1268;24306;-56
2023/06/09 13:58:27;;;;;;;2.20;2.10;;;25.50;53.40;;;;;;222328;1268;22697;-52
2023/06/09 14:03:37;;;;;;;2.10;2.00;;;25.50;53.50;;;;;;222508;1268;22524;-55
2023/06/09 14:08:42;;;;;;;2.10;2.00;;;25.50;53.50;;;;;;222423;1268;24227;-53
2023/06/09 14:13:47;;;;;;;2.20;2.10;;;25.50;53.50;;;;;;222535;1268;203326;-55
2023/06/09 14:18:52;;;;;;;2.10;2.00;;;25.50;53.60;;;;;;222581;1268;23704;-54
2023/06/09 14:23:58;;;;;;;2.00;1.90;;;25.50;53.70;;;;;;222586;1268;24720;-54
2023/06/09 14:29:03;;;;;;;2.10;2.00;;;25.40;53.60;;;;;;222401;1268;22523;-53
2023/06/09 14:34:07;;;;;;;2.00;1.90;;;25.50;53.60;;;;;;222528;1266;22509;-53
2023/06/09 14:39:12;;;;;;;2.00;1.90;;;25.50;53.70;;;;;;222302;1268;24184;-57
2023/06/09 14:44:16;;;;;;;2.00;1.90;;;25.40;53.70;;;;;;222544;1268;25305;-54
2023/06/09 14:49:20;;;;;;;2.10;2.00;;;25.50;53.60;;;;;;222274;1268;24295;-49
2023/06/09 14:54:24;;;;;;;1.70;1.60;;;25.50;53.60;;;;;;222378;1268;24192;-54
2023/06/09 14:59:28;;;;;;;2.00;1.90;;;25.60;53.60;;;;;;222553;1268;24243;-54
2023/06/09 15:04:33;;;;;;;2.10;1.80;;;25.60;53.50;;;;;;222368;1268;22514;-55
2023/06/09 15:09:37;;;;;;;1.90;1.80;;;25.50;53.70;;;;;;222520;1268;22524;-56
2023/06/09 15:14:41;;;;;;;1.60;1.50;;;25.50;54.00;;;;;;222260;1268;24639;-53
2023/06/09 15:19:46;;;;;;;2.00;1.90;;;25.50;53.70;;;;;;222433;1268;22574;-52
2023/06/09 15:24:54;;;;;;;2.30;2.20;;;25.50;54.20;;;;;;222290;1268;22498;-52
2023/06/09 15:29:58;;;;;;;2.10;2.00;;;25.50;53.80;;;;;;222575;1263;22517;-54
2023/06/09 15:35:03;;;;;;;2.00;1.90;;;25.50;53.50;;;;;;222441;1268;22510;-53
2023/06/09 15:40:08;;;;;;;1.80;1.70;;;25.50;54.20;;;;;;222539;1267;22796;-52
2023/06/09 15:45:13;;;;;;;2.00;1.90;;;25.50;53.70;;;;;;222606;1268;23322;-55
2023/06/09 15:50:17;;;;;;;2.00;1.90;;;25.60;53.70;;;;;;222866;1266;25462;-52
2023/06/09 15:55:21;;;;;;;1.90;1.80;;;25.50;53.80;;;;;;222528;1268;22634;-51
2023/06/09 16:00:26;;;;;;;2.00;1.90;;;25.50;53.80;;;;;;222591;1265;25380;-57
2023/06/09 16:05:33;;;;;;;1.90;1.80;;;25.50;53.80;;;;;;222641;1268;24243;-58
2023/06/09 16:10:39;;;;;;;1.80;1.70;;;25.40;53.90;;;;;;222577;1268;24267;-50
2023/06/09 16:15:43;;;;;;;1.70;1.60;;;25.40;53.90;;;;;;222605;1268;23900;-53
2023/06/09 16:20:48;;;;;;;2.00;1.90;;;25.40;54.00;;;;;;222299;1268;22504;-54
2023/06/09 16:25:52;;;;;;;2.20;2.10;;;25.40;54.00;;;;;;222697;1268;25499;-53
2023/06/09 16:30:56;;;;;;;1.90;1.80;;;25.40;54.00;;;;;;222436;1268;24263;-57
2023/06/09 16:36:00;;;;;;;2.40;2.20;;;25.40;54.00;;;;;;222478;1268;24269;-55
2023/06/09 16:41:04;;;;;;;2.10;2.00;;;25.40;54.00;;;;;;222458;1268;23016;-52
2023/06/09 16:46:10;;;;;;;1.80;1.70;;;25.40;54.10;;;;;;222532;1268;22515;-54
2023/06/09 16:51:16;;;;;;;1.80;1.70;;;25.40;54.40;;;;;;222433;1268;22508;-51
2023/06/09 16:56:21;;;;;;;1.80;1.70;;;25.40;54.00;;;;;;222450;1268;26505;-52
2023/06/09 17:01:25;;;;;;;2.10;2.00;;;25.40;54.00;;;;;;222706;1268;24158;-53
2023/06/09 17:06:30;;;;;;;1.90;1.80;;;25.40;54.10;;;;;;222378;1268;24164;-55
2023/06/09 17:11:34;;;;;;;1.90;1.80;;;25.40;54.20;;;;;;222582;1268;24356;-53
2023/06/09 17:16:41;;;;;;;2.00;1.90;;;25.40;54.20;;;;;;222405;1268;22507;-56
2023/06/09 17:21:45;;;;;;;1.70;1.60;;;25.40;54.30;;;;;;222627;1266;22577;-53
2023/06/09 17:26:50;;;;;;;1.80;1.70;;;25.30;54.70;;;;;;222420;1268;24841;-52
2023/06/09 17:31:56;;;;;;;1.90;1.80;;;25.30;54.30;;;;;;222576;1268;22611;-52
2023/06/09 17:37:05;;;;;;;2.00;1.90;;;25.30;54.40;;;;;;222521;1268;26530;-54
2023/06/09 17:42:10;;;;;;;2.00;1.90;;;25.30;54.40;;;;;;222662;1267;22512;-53
2023/06/09 17:47:14;;;;;;;1.80;1.70;;;25.30;54.80;;;;;;222680;1266;23886;-51
2023/06/09 17:52:21;;;;;;;2.00;1.90;;;25.30;54.50;;;;;;222611;1268;23209;-55
2023/06/09 17:57:26;;;;;;;2.10;2.00;;;25.30;54.50;;;;;;222393;1268;23912;-56
2023/06/09 18:02:31;;;;;;;1.80;1.70;;;25.30;54.50;;;;;;222484;1268;23108;-54
2023/06/09 18:07:35;;;;;;;1.80;1.70;;;25.30;54.50;;;;;;222566;1268;22513;-53
2023/06/09 18:12:41;;;;;;;2.10;2.00;;;25.30;54.60;;;;;;222577;1267;24245;-54
2023/06/09 18:17:45;;;;;;;1.80;1.70;;;25.30;54.60;;;;;;222282;1268;22623;-55
2023/06/09 18:22:50;;;;;;;2.20;2.00;;;25.30;54.60;;;;;;222510;1268;24040;-53
2023/06/09 18:27:55;;;;;;;2.00;1.90;;;25.30;54.70;;;;;;222476;1268;24291;-54
2023/06/09 18:33:02;;;;;;;2.10;2.00;;;25.20;54.60;;;;;;222496;1268;22530;-56
2023/06/09 18:38:08;;;;;;;2.10;2.00;;;25.20;55.00;;;;;;222202;1268;24696;-54
2023/06/09 18:43:12;;;;;;;2.00;1.90;;;25.30;54.70;;;;;;222554;1267;25246;-53
2023/06/09 18:48:17;;;;;;;1.80;1.70;;;25.30;54.90;;;;;;222358;1268;23908;-53
2023/06/09 18:53:21;;;;;;;2.10;1.90;;;25.20;54.70;;;;;;222590;1267;23885;-52
2023/06/09 18:58:26;;;;;;;1.80;1.70;;;25.20;54.70;;;;;;222474;1268;22524;-54
2023/06/09 19:03:30;;;;;;;2.20;2.00;;;25.20;54.80;;;;;;222134;1268;23893;-53
2023/06/09 19:08:35;;;;;;;2.00;1.90;;;25.20;54.90;;;;;;222650;1268;26728;-55
2023/06/09 19:13:40;;;;;;;2.00;1.90;;;25.20;54.90;;;;;;222599;1267;22518;-54
2023/06/09 19:18:44;;;;;;;2.00;1.90;;;25.10;54.90;;;;;;222442;1264;25373;-53
2023/06/09 19:23:53;;;;;;;1.80;1.70;;;25.10;55.00;;;;;;222488;1268;24262;-51
2023/06/09 19:28:57;;;;;;;2.00;1.90;;;25.10;55.00;;;;;;222393;1268;23011;-56
2023/06/09 19:34:02;;;;;;;2.00;1.90;;;25.10;55.00;;;;;;222372;1268;24285;-54
2023/06/09 19:39:06;;;;;;;2.10;2.00;;;25.10;55.10;;;;;;222128;1268;24185;-53
2023/06/09 19:44:10;;;;;;;1.90;1.80;;;25.10;55.10;;;;;;222589;1268;26630;-57
2023/06/09 19:49:15;;;;;;;2.20;2.10;;;25.10;55.10;;;;;;222423;1268;22522;-55
2023/06/09 19:54:21;;;;;;;1.70;1.60;;;25.10;55.10;;;;;;222499;1268;24442;-55
2023/06/09 19:59:25;;;;;;;1.80;1.70;;;25.10;55.10;;;;;;222689;1268;22641;-51
2023/06/09 20:04:30;;;;;;;2.00;1.90;;;25.10;55.50;;;;;;222386;1268;22619;-55
2023/06/09 20:09:35;;;;;;;1.80;1.70;;;25.10;55.50;;;;;;222546;1268;25330;-52
2023/06/09 20:14:41;;;;;;;2.30;2.20;;;25.10;55.10;;;;;;222516;1268;22570;-56
2023/06/09 20:19:45;;;;;;;2.20;2.10;;;25.10;55.50;;;;;;222439;1268;22514;-52
2023/06/09 20:24:50;;;;;;;2.10;2.00;;;25.10;55.50;;;;;;222620;1267;22521;-53
2023/06/09 20:29:54;;;;;;;1.80;1.70;;;25.10;55.20;;;;;;222541;1268;24323;-50
2023/06/09 20:35:00;;;;;;;1.90;1.80;;;25.10;55.20;;;;;;222603;1263;23566;-56
2023/06/09 20:40:06;;;;;;;2.10;2.00;;;25.10;55.20;;;;;;222544;1268;22634;-53
2023/06/09 20:45:10;;;;;;;2.10;2.00;;;25.00;55.20;;;;;;222398;1268;22623;-51
2023/06/09 20:50:14;;;;;;;1.80;1.70;;;25.00;55.20;;;;;;222472;1266;25358;-54
2023/06/09 20:55:19;;;;;;;1.90;1.80;;;25.00;55.60;;;;;;222772;1264;22632;-56
2023/06/09 21:00:25;;;;;;;2.30;2.20;;;25.00;55.20;;;;;;222595;1263;22507;-54
2023/06/09 21:05:30;;;;;;;2.00;1.80;;;25.00;55.20;;;;;;222498;1268;27096;-56
2023/06/09 21:10:35;;;;;;;2.00;1.80;;;25.00;55.30;;;;;;222552;1266;22525;-55
2023/06/09 21:15:39;;;;;;;2.10;2.00;;;25.00;55.50;;;;;;222713;1264;25345;-53
2023/06/09 21:20:44;;;;;;;1.70;1.60;;;25.00;55.30;;;;;;222561;1268;22615;-53
2023/06/09 21:25:48;;;;;;;1.70;1.60;;;25.00;55.50;;;;;;222465;1268;24193;-51
2023/06/09 21:30:56;;;;;;;1.90;1.80;;;25.00;55.20;;;;;;222444;1268;24200;-54
2023/06/09 21:36:00;;;;;;;2.30;2.20;;;25.00;55.20;;;;;;222420;1269;24480;-52
2023/06/09 21:41:04;;;;;;;2.20;2.00;;;25.00;55.20;;;;;;222508;1269;22520;-51
2023/06/09 21:46:10;;;;;;;1.90;1.80;;;25.00;55.20;;;;;;222157;1269;22650;-55
2023/06/09 21:51:15;;;;;;;1.90;1.80;;;25.00;55.20;;;;;;222110;1269;24229;-53
2023/06/09 21:56:19;;;;;;;2.00;1.90;;;25.00;55.20;;;;;;222648;1267;24188;-53
2023/06/09 22:01:23;;;;;;;2.00;1.90;;;25.00;55.30;;;;;;222442;1265;24938;-51
2023/06/09 22:06:28;;;;;;;2.50;2.40;;;25.00;55.50;;;;;;222296;1269;25255;-56
2023/06/09 22:11:33;;;;;;;2.00;1.90;;;25.10;55.40;;;;;;222287;1269;22627;-57
2023/06/09 22:16:38;;;;;;;2.10;2.00;;;25.00;55.50;;;;;;222153;1265;22513;-54
2023/06/09 22:21:42;;;;;;;2.10;2.00;;;25.00;55.20;;;;;;222210;1269;24184;-57
2023/06/09 22:26:48;;;;;;;1.80;1.70;;;25.00;55.20;;;;;;222232;1269;22590;-53
2023/06/09 22:32:03;;;;;;;1.60;1.60;;;25.00;55.20;;;;;;222325;1268;22637;-51
2023/06/09 22:37:10;;;;;;;2.20;2.10;;;25.00;55.00;;;;;;222536;1268;22629;-54
2023/06/09 22:42:14;;;;;;;1.90;1.80;;;25.00;55.00;;;;;;222729;1266;22508;-57
2023/06/09 22:47:19;;;;;;;2.10;2.00;;;25.00;55.00;;;;;;222599;1268;24158;-52
2023/06/09 22:52:23;;;;;;;2.40;2.20;;;25.00;55.10;;;;;;222556;1268;24182;-56
2023/06/09 22:57:28;;;;;;;1.90;1.80;;;24.90;55.00;;;;;;222604;1268;26599;-55
2023/06/09 23:02:32;;;;;;;2.30;2.20;;;25.00;55.00;;;;;;222649;1268;26497;-55
2023/06/09 23:07:37;;;;;;;1.90;1.80;;;24.90;55.10;;;;;;222898;1267;24431;-52
2023/06/09 23:12:41;;;;;;;2.00;1.90;;;25.00;54.90;;;;;;223390;1268;22797;-54
2023/06/09 23:17:45;;;;;;;1.90;1.80;;;25.00;54.80;;;;;;223263;1268;22534;-54
2023/06/09 23:22:55;;;;;;;1.90;1.80;;;25.00;54.80;;;;;;223340;1268;22513;-53
2023/06/09 23:27:59;;;;;;;2.20;2.10;;;25.00;55.10;;;;;;223494;1267;23897;-49
2023/06/09 23:33:04;;;;;;;1.80;1.70;;;25.00;54.70;;;;;;223570;1268;24356;-53
2023/06/09 23:38:08;;;;;;;2.10;2.00;;;25.00;54.70;;;;;;223529;1263;22575;-51
2023/06/09 23:43:12;;;;;;;2.30;2.10;;;25.00;54.70;;;;;;223212;1268;22466;-53
2023/06/09 23:48:17;;;;;;;1.90;1.80;;;25.00;54.70;;;;;;223692;1267;22596;-52
2023/06/09 23:53:22;;;;;;;2.40;2.30;;;25.00;54.70;;;;;;223821;1263;22849;-52
2023/06/09 23:58:26;;;;;;;2.20;2.10;;;25.00;54.70;;;;;;222793;1264;25319;-53
